sensor_id;sensor_type;location;lat;lon;timestamp;P1;durP1;ratioP1;P2;durP2;ratioP2
29184;SDS011;16233;47.964;-3.842;2022-10-31T00:01:38;22.75;;;20.77;;
29184;SDS011;16233;47.964;-3.842;2022-10-31T00:03:39;31.60;;;21.65;;
29184;SDS011;16233;47.964;-3.842;2022-10-31T00:05:40;20.90;;;18.88;;
29184;SDS011;16233;47.964;-3.842;2022-10-31T00:07:42;28.50;;;21.55;;
29184;SDS011;16233;47.964;-3.842;2022-10-31T00:09:43;25.80;;;19.33;;
29184;SDS011;16233;47.964;-3.842;2022-10-31T00:11:45;24.20;;;21.65;;
29184;SDS011;16233;47.964;-3.842;2022-10-31T00:13:46;28.42;;;21.33;;
29184;SDS011;16233;47.964;-3.842;2022-10-31T00:15:48;23.42;;;21.20;;
29184;SDS011;16233;47.964;-3.842;2022-10-31T00:17:49;24.35;;;21.80;;
29184;SDS011;16233;47.964;-3.842;2022-10-31T00:19:49;22.38;;;18.85;;
29184;SDS011;16233;47.964;-3.842;2022-10-31T00:21:51;23.60;;;18.83;;
29184;SDS011;16233;47.964;-3.842;2022-10-31T00:23:53;22.98;;;20.70;;
29184;SDS011;16233;47.964;-3.842;2022-10-31T00:25:59;21.75;;;18.75;;
29184;SDS011;16233;47.964;-3.842;2022-10-31T00:28:02;22.23;;;20.42;;
29184;SDS011;16233;47.964;-3.842;2022-10-31T00:30:04;23.35;;;21.13;;
29184;SDS011;16233;47.964;-3.842;2022-10-31T00:32:05;20.33;;;18.77;;
29184;SDS011;16233;47.964;-3.842;2022-10-31T00:34:07;20.70;;;18.90;;
29184;SDS011;16233;47.964;-3.842;2022-10-31T00:36:10;25.75;;;19.98;;
29184;SDS011;16233;47.964;-3.842;2022-10-31T00:38:13;21.08;;;19.70;;
29184;SDS011;16233;47.964;-3.842;2022-10-31T00:40:14;24.15;;;22.10;;
29184;SDS011;16233;47.964;-3.842;2022-10-31T00:42:15;22.02;;;19.70;;
29184;SDS011;16233;47.964;-3.842;2022-10-31T00:44:18;23.20;;;21.17;;
29184;SDS011;16233;47.964;-3.842;2022-10-31T00:46:19;26.63;;;20.65;;
29184;SDS011;16233;47.964;-3.842;2022-10-31T00:48:20;23.58;;;20.90;;
29184;SDS011;16233;47.964;-3.842;2022-10-31T00:50:21;25.23;;;21.00;;
29184;SDS011;16233;47.964;-3.842;2022-10-31T00:52:22;24.15;;;21.60;;
29184;SDS011;16233;47.964;-3.842;2022-10-31T00:54:23;24.02;;;21.67;;
29184;SDS011;16233;47.964;-3.842;2022-10-31T00:56:24;21.55;;;19.63;;
29184;SDS011;16233;47.964;-3.842;2022-10-31T00:58:24;21.15;;;19.60;;
29184;SDS011;16233;47.964;-3.842;2022-10-31T01:00:27;21.45;;;19.17;;
29184;SDS011;16233;47.964;-3.842;2022-10-31T01:02:28;27.13;;;20.13;;
29184;SDS011;16233;47.964;-3.842;2022-10-31T01:04:29;23.85;;;20.83;;
29184;SDS011;16233;47.964;-3.842;2022-10-31T01:06:30;25.30;;;22.27;;
29184;SDS011;16233;47.964;-3.842;2022-10-31T01:10:57;28.02;;;20.08;;
29184;SDS011;16233;47.964;-3.842;2022-10-31T01:12:59;26.73;;;19.80;;
29184;SDS011;16233;47.964;-3.842;2022-10-31T01:15:00;32.08;;;19.73;;
29184;SDS011;16233;47.964;-3.842;2022-10-31T01:17:02;22.02;;;18.38;;
29184;SDS011;16233;47.964;-3.842;2022-10-31T01:19:03;22.23;;;20.13;;
29184;SDS011;16233;47.964;-3.842;2022-10-31T01:21:05;24.50;;;19.73;;
29184;SDS011;16233;47.964;-3.842;2022-10-31T01:23:07;23.52;;;20.40;;
29184;SDS011;16233;47.964;-3.842;2022-10-31T01:25:08;23.23;;;20.65;;
29184;SDS011;16233;47.964;-3.842;2022-10-31T01:27:09;22.50;;;20.13;;
29184;SDS011;16233;47.964;-3.842;2022-10-31T01:29:10;20.63;;;18.92;;
29184;SDS011;16233;47.964;-3.842;2022-10-31T01:31:11;26.65;;;20.80;;
29184;SDS011;16233;47.964;-3.842;2022-10-31T01:33:14;21.77;;;19.45;;
29184;SDS011;16233;47.964;-3.842;2022-10-31T01:35:15;24.02;;;18.75;;
29184;SDS011;16233;47.964;-3.842;2022-10-31T01:37:16;22.08;;;19.83;;
29184;SDS011;16233;47.964;-3.842;2022-10-31T01:39:17;21.20;;;19.55;;
29184;SDS011;16233;47.964;-3.842;2022-10-31T01:41:20;25.00;;;19.65;;
29184;SDS011;16233;47.964;-3.842;2022-10-31T01:43:22;21.60;;;19.48;;
29184;SDS011;16233;47.964;-3.842;2022-10-31T01:45:23;25.13;;;20.73;;
29184;SDS011;16233;47.964;-3.842;2022-10-31T01:47:31;23.88;;;20.00;;
29184;SDS011;16233;47.964;-3.842;2022-10-31T01:49:40;24.15;;;21.23;;
29184;SDS011;16233;47.964;-3.842;2022-10-31T01:51:46;25.40;;;18.67;;
29184;SDS011;16233;47.964;-3.842;2022-10-31T01:53:50;23.45;;;19.88;;
29184;SDS011;16233;47.964;-3.842;2022-10-31T01:55:55;22.35;;;18.73;;
29184;SDS011;16233;47.964;-3.842;2022-10-31T01:57:57;32.28;;;20.30;;
29184;SDS011;16233;47.964;-3.842;2022-10-31T02:00:02;21.52;;;19.45;;
29184;SDS011;16233;47.964;-3.842;2022-10-31T02:02:06;20.67;;;18.75;;
29184;SDS011;16233;47.964;-3.842;2022-10-31T02:04:07;21.30;;;19.25;;
29184;SDS011;16233;47.964;-3.842;2022-10-31T02:06:10;22.35;;;20.27;;
29184;SDS011;16233;47.964;-3.842;2022-10-31T02:08:20;22.27;;;19.15;;
29184;SDS011;16233;47.964;-3.842;2022-10-31T02:10:25;28.75;;;19.65;;
29184;SDS011;16233;47.964;-3.842;2022-10-31T02:12:29;20.02;;;17.77;;
29184;SDS011;16233;47.964;-3.842;2022-10-31T02:14:31;24.05;;;19.70;;
29184;SDS011;16233;47.964;-3.842;2022-10-31T02:16:33;19.15;;;17.50;;
29184;SDS011;16233;47.964;-3.842;2022-10-31T02:18:34;31.45;;;20.63;;
29184;SDS011;16233;47.964;-3.842;2022-10-31T02:20:37;20.10;;;17.80;;
29184;SDS011;16233;47.964;-3.842;2022-10-31T02:22:57;20.42;;;18.45;;
29184;SDS011;16233;47.964;-3.842;2022-10-31T02:25:43;25.30;;;18.65;;
29184;SDS011;16233;47.964;-3.842;2022-10-31T02:28:15;22.48;;;18.10;;
29184;SDS011;16233;47.964;-3.842;2022-10-31T02:30:30;26.35;;;17.73;;
29184;SDS011;16233;47.964;-3.842;2022-10-31T02:35:08;28.98;;;18.92;;
29184;SDS011;16233;47.964;-3.842;2022-10-31T02:37:14;27.08;;;17.60;;
29184;SDS011;16233;47.964;-3.842;2022-10-31T02:39:23;23.10;;;18.08;;
29184;SDS011;16233;47.964;-3.842;2022-10-31T02:41:27;22.67;;;18.52;;
29184;SDS011;16233;47.964;-3.842;2022-10-31T02:43:35;19.10;;;17.20;;
29184;SDS011;16233;47.964;-3.842;2022-10-31T02:45:43;23.30;;;19.40;;
29184;SDS011;16233;47.964;-3.842;2022-10-31T02:47:49;23.08;;;17.20;;
29184;SDS011;16233;47.964;-3.842;2022-10-31T02:49:55;22.45;;;16.90;;
29184;SDS011;16233;47.964;-3.842;2022-10-31T02:51:59;24.75;;;16.63;;
29184;SDS011;16233;47.964;-3.842;2022-10-31T02:54:00;27.15;;;17.40;;
29184;SDS011;16233;47.964;-3.842;2022-10-31T02:56:02;20.48;;;17.08;;
29184;SDS011;16233;47.964;-3.842;2022-10-31T02:58:07;25.77;;;16.73;;
29184;SDS011;16233;47.964;-3.842;2022-10-31T03:00:12;22.65;;;16.67;;
29184;SDS011;16233;47.964;-3.842;2022-10-31T03:02:19;24.35;;;17.77;;
29184;SDS011;16233;47.964;-3.842;2022-10-31T03:06:59;20.00;;;18.00;;
29184;SDS011;16233;47.964;-3.842;2022-10-31T03:09:05;21.60;;;18.00;;
29184;SDS011;16233;47.964;-3.842;2022-10-31T03:11:11;24.35;;;17.15;;
29184;SDS011;16233;47.964;-3.842;2022-10-31T03:13:15;20.35;;;18.08;;
29184;SDS011;16233;47.964;-3.842;2022-10-31T03:15:24;25.73;;;16.80;;
29184;SDS011;16233;47.964;-3.842;2022-10-31T03:17:30;21.42;;;17.30;;
29184;SDS011;16233;47.964;-3.842;2022-10-31T03:19:38;19.70;;;17.60;;
29184;SDS011;16233;47.964;-3.842;2022-10-31T03:21:43;23.10;;;18.80;;
29184;SDS011;16233;47.964;-3.842;2022-10-31T03:23:46;24.13;;;18.17;;
29184;SDS011;16233;47.964;-3.842;2022-10-31T03:25:51;24.52;;;17.23;;
29184;SDS011;16233;47.964;-3.842;2022-10-31T03:27:54;19.10;;;17.50;;
29184;SDS011;16233;47.964;-3.842;2022-10-31T03:29:57;25.48;;;17.17;;
29184;SDS011;16233;47.964;-3.842;2022-10-31T03:32:03;23.42;;;17.52;;
29184;SDS011;16233;47.964;-3.842;2022-10-31T03:34:08;19.35;;;17.42;;
29184;SDS011;16233;47.964;-3.842;2022-10-31T03:36:13;18.50;;;16.98;;
29184;SDS011;16233;47.964;-3.842;2022-10-31T03:38:17;19.48;;;17.70;;
29184;SDS011;16233;47.964;-3.842;2022-10-31T03:40:20;21.48;;;17.05;;
29184;SDS011;16233;47.964;-3.842;2022-10-31T03:42:24;19.55;;;16.42;;
29184;SDS011;16233;47.964;-3.842;2022-10-31T03:44:27;20.60;;;18.58;;
29184;SDS011;16233;47.964;-3.842;2022-10-31T03:46:31;17.95;;;15.52;;
29184;SDS011;16233;47.964;-3.842;2022-10-31T03:48:32;18.92;;;17.17;;
29184;SDS011;16233;47.964;-3.842;2022-10-31T03:50:36;19.48;;;17.88;;
29184;SDS011;16233;47.964;-3.842;2022-10-31T03:52:45;18.60;;;16.58;;
29184;SDS011;16233;47.964;-3.842;2022-10-31T03:54:51;20.27;;;18.08;;
29184;SDS011;16233;47.964;-3.842;2022-10-31T03:56:57;18.08;;;16.63;;
29184;SDS011;16233;47.964;-3.842;2022-10-31T03:59:05;17.98;;;16.23;;
29184;SDS011;16233;47.964;-3.842;2022-10-31T04:01:11;19.55;;;17.67;;
29184;SDS011;16233;47.964;-3.842;2022-10-31T04:03:17;21.13;;;16.50;;
29184;SDS011;16233;47.964;-3.842;2022-10-31T04:05:22;26.63;;;16.17;;
29184;SDS011;16233;47.964;-3.842;2022-10-31T04:07:25;19.25;;;17.17;;
29184;SDS011;16233;47.964;-3.842;2022-10-31T04:09:31;18.15;;;16.15;;
29184;SDS011;16233;47.964;-3.842;2022-10-31T04:11:38;18.13;;;16.63;;
29184;SDS011;16233;47.964;-3.842;2022-10-31T04:13:45;18.90;;;16.23;;
29184;SDS011;16233;47.964;-3.842;2022-10-31T04:15:47;22.30;;;18.75;;
29184;SDS011;16233;47.964;-3.842;2022-10-31T04:17:50;17.17;;;15.70;;
29184;SDS011;16233;47.964;-3.842;2022-10-31T04:19:54;20.33;;;17.05;;
29184;SDS011;16233;47.964;-3.842;2022-10-31T04:21:58;18.88;;;16.38;;
29184;SDS011;16233;47.964;-3.842;2022-10-31T04:23:59;24.77;;;17.13;;
29184;SDS011;16233;47.964;-3.842;2022-10-31T04:26:01;24.67;;;16.17;;
29184;SDS011;16233;47.964;-3.842;2022-10-31T04:28:04;17.75;;;15.70;;
29184;SDS011;16233;47.964;-3.842;2022-10-31T04:30:05;18.55;;;15.52;;
29184;SDS011;16233;47.964;-3.842;2022-10-31T04:32:07;18.63;;;16.23;;
29184;SDS011;16233;47.964;-3.842;2022-10-31T04:34:08;19.83;;;17.25;;
29184;SDS011;16233;47.964;-3.842;2022-10-31T04:36:09;28.73;;;16.00;;
29184;SDS011;16233;47.964;-3.842;2022-10-31T04:38:10;18.30;;;16.40;;
29184;SDS011;16233;47.964;-3.842;2022-10-31T04:40:11;18.65;;;16.92;;
29184;SDS011;16233;47.964;-3.842;2022-10-31T04:42:12;21.15;;;17.45;;
29184;SDS011;16233;47.964;-3.842;2022-10-31T04:44:14;19.83;;;18.05;;
29184;SDS011;16233;47.964;-3.842;2022-10-31T04:46:15;24.27;;;17.13;;
29184;SDS011;16233;47.964;-3.842;2022-10-31T04:48:16;18.67;;;16.85;;
29184;SDS011;16233;47.964;-3.842;2022-10-31T04:50:17;21.60;;;16.77;;
29184;SDS011;16233;47.964;-3.842;2022-10-31T04:52:18;18.08;;;16.40;;
29184;SDS011;16233;47.964;-3.842;2022-10-31T04:54:19;22.15;;;18.15;;
29184;SDS011;16233;47.964;-3.842;2022-10-31T04:56:20;21.45;;;17.10;;
29184;SDS011;16233;47.964;-3.842;2022-10-31T04:58:21;20.73;;;18.00;;
29184;SDS011;16233;47.964;-3.842;2022-10-31T05:00:24;19.00;;;17.05;;
29184;SDS011;16233;47.964;-3.842;2022-10-31T05:02:29;25.50;;;17.92;;
29184;SDS011;16233;47.964;-3.842;2022-10-31T05:04:29;25.05;;;16.42;;
29184;SDS011;16233;47.964;-3.842;2022-10-31T05:06:30;23.85;;;17.20;;
29184;SDS011;16233;47.964;-3.842;2022-10-31T05:08:34;18.73;;;16.90;;
29184;SDS011;16233;47.964;-3.842;2022-10-31T05:10:46;20.88;;;17.77;;
29184;SDS011;16233;47.964;-3.842;2022-10-31T05:12:47;19.00;;;16.67;;
29184;SDS011;16233;47.964;-3.842;2022-10-31T05:14:49;21.42;;;18.65;;
29184;SDS011;16233;47.964;-3.842;2022-10-31T05:16:51;27.52;;;16.35;;
29184;SDS011;16233;47.964;-3.842;2022-10-31T05:18:52;17.73;;;15.93;;
29184;SDS011;16233;47.964;-3.842;2022-10-31T05:20:53;21.48;;;17.02;;
29184;SDS011;16233;47.964;-3.842;2022-10-31T05:22:55;19.90;;;16.38;;
29184;SDS011;16233;47.964;-3.842;2022-10-31T05:24:57;21.17;;;17.75;;
29184;SDS011;16233;47.964;-3.842;2022-10-31T05:26:58;23.25;;;16.95;;
29184;SDS011;16233;47.964;-3.842;2022-10-31T05:28:59;21.85;;;17.63;;
29184;SDS011;16233;47.964;-3.842;2022-10-31T05:31:00;21.88;;;17.08;;
29184;SDS011;16233;47.964;-3.842;2022-10-31T05:33:02;23.70;;;17.33;;
29184;SDS011;16233;47.964;-3.842;2022-10-31T05:35:04;21.30;;;17.33;;
29184;SDS011;16233;47.964;-3.842;2022-10-31T05:37:05;23.85;;;17.52;;
29184;SDS011;16233;47.964;-3.842;2022-10-31T05:39:07;20.20;;;17.90;;
29184;SDS011;16233;47.964;-3.842;2022-10-31T05:41:08;22.65;;;18.13;;
29184;SDS011;16233;47.964;-3.842;2022-10-31T05:43:09;21.75;;;16.25;;
29184;SDS011;16233;47.964;-3.842;2022-10-31T05:45:11;20.92;;;18.73;;
29184;SDS011;16233;47.964;-3.842;2022-10-31T05:47:13;28.88;;;17.33;;
29184;SDS011;16233;47.964;-3.842;2022-10-31T05:49:15;26.45;;;18.60;;
29184;SDS011;16233;47.964;-3.842;2022-10-31T05:51:16;25.35;;;18.15;;
29184;SDS011;16233;47.964;-3.842;2022-10-31T05:53:17;22.13;;;17.67;;
29184;SDS011;16233;47.964;-3.842;2022-10-31T05:55:18;24.60;;;18.17;;
29184;SDS011;16233;47.964;-3.842;2022-10-31T05:57:19;22.15;;;17.58;;
29184;SDS011;16233;47.964;-3.842;2022-10-31T05:59:20;34.15;;;17.90;;
29184;SDS011;16233;47.964;-3.842;2022-10-31T06:01:21;28.30;;;17.67;;
29184;SDS011;16233;47.964;-3.842;2022-10-31T06:03:22;25.15;;;19.58;;
29184;SDS011;16233;47.964;-3.842;2022-10-31T06:05:25;24.95;;;18.00;;
29184;SDS011;16233;47.964;-3.842;2022-10-31T06:07:26;25.77;;;18.08;;
29184;SDS011;16233;47.964;-3.842;2022-10-31T06:09:27;26.88;;;19.42;;
29184;SDS011;16233;47.964;-3.842;2022-10-31T06:11:28;26.52;;;19.20;;
29184;SDS011;16233;47.964;-3.842;2022-10-31T06:13:29;21.38;;;18.77;;
29184;SDS011;16233;47.964;-3.842;2022-10-31T06:15:30;29.35;;;19.25;;
29184;SDS011;16233;47.964;-3.842;2022-10-31T06:17:31;24.13;;;18.90;;
29184;SDS011;16233;47.964;-3.842;2022-10-31T06:19:32;31.25;;;19.52;;
29184;SDS011;16233;47.964;-3.842;2022-10-31T06:21:34;29.63;;;20.15;;
29184;SDS011;16233;47.964;-3.842;2022-10-31T06:23:35;25.27;;;21.13;;
29184;SDS011;16233;47.964;-3.842;2022-10-31T06:25:36;28.88;;;19.80;;
29184;SDS011;16233;47.964;-3.842;2022-10-31T06:27:37;31.25;;;19.50;;
29184;SDS011;16233;47.964;-3.842;2022-10-31T06:29:38;36.15;;;20.55;;
29184;SDS011;16233;47.964;-3.842;2022-10-31T06:31:39;36.80;;;18.90;;
29184;SDS011;16233;47.964;-3.842;2022-10-31T06:33:40;35.53;;;20.55;;
29184;SDS011;16233;47.964;-3.842;2022-10-31T06:35:44;43.50;;;19.98;;
29184;SDS011;16233;47.964;-3.842;2022-10-31T06:37:51;60.22;;;20.73;;
29184;SDS011;16233;47.964;-3.842;2022-10-31T06:39:52;55.60;;;19.15;;
29184;SDS011;16233;47.964;-3.842;2022-10-31T06:41:53;57.65;;;19.88;;
29184;SDS011;16233;47.964;-3.842;2022-10-31T06:43:54;52.80;;;22.52;;
29184;SDS011;16233;47.964;-3.842;2022-10-31T06:45:55;65.95;;;21.65;;
29184;SDS011;16233;47.964;-3.842;2022-10-31T06:47:57;46.17;;;18.92;;
29184;SDS011;16233;47.964;-3.842;2022-10-31T06:49:58;36.20;;;19.02;;
29184;SDS011;16233;47.964;-3.842;2022-10-31T06:51:59;52.70;;;20.33;;
29184;SDS011;16233;47.964;-3.842;2022-10-31T06:54:01;52.00;;;20.02;;
29184;SDS011;16233;47.964;-3.842;2022-10-31T06:56:02;95.45;;;22.88;;
29184;SDS011;16233;47.964;-3.842;2022-10-31T06:58:04;56.45;;;20.27;;
29184;SDS011;16233;47.964;-3.842;2022-10-31T07:00:05;53.72;;;20.05;;
29184;SDS011;16233;47.964;-3.842;2022-10-31T07:02:08;57.78;;;20.90;;
29184;SDS011;16233;47.964;-3.842;2022-10-31T07:04:10;43.53;;;19.85;;
29184;SDS011;16233;47.964;-3.842;2022-10-31T07:06:11;48.25;;;21.95;;
29184;SDS011;16233;47.964;-3.842;2022-10-31T07:08:13;24.27;;;19.45;;
29184;SDS011;16233;47.964;-3.842;2022-10-31T07:10:16;38.13;;;20.58;;
29184;SDS011;16233;47.964;-3.842;2022-10-31T07:12:17;31.63;;;19.77;;
29184;SDS011;16233;47.964;-3.842;2022-10-31T07:14:18;40.42;;;21.80;;
29184;SDS011;16233;47.964;-3.842;2022-10-31T07:16:18;45.67;;;22.50;;
29184;SDS011;16233;47.964;-3.842;2022-10-31T07:18:20;37.00;;;21.35;;
29184;SDS011;16233;47.964;-3.842;2022-10-31T07:20:21;52.30;;;22.05;;
29184;SDS011;16233;47.964;-3.842;2022-10-31T07:22:22;42.50;;;20.63;;
29184;SDS011;16233;47.964;-3.842;2022-10-31T07:24:26;47.47;;;22.50;;
29184;SDS011;16233;47.964;-3.842;2022-10-31T07:26:28;68.57;;;20.17;;
29184;SDS011;16233;47.964;-3.842;2022-10-31T07:28:29;68.13;;;21.42;;
29184;SDS011;16233;47.964;-3.842;2022-10-31T07:30:30;67.10;;;23.42;;
29184;SDS011;16233;47.964;-3.842;2022-10-31T07:32:37;43.30;;;21.77;;
29184;SDS011;16233;47.964;-3.842;2022-10-31T07:34:38;47.78;;;20.80;;
29184;SDS011;16233;47.964;-3.842;2022-10-31T07:36:39;65.07;;;22.70;;
29184;SDS011;16233;47.964;-3.842;2022-10-31T07:38:40;49.50;;;22.27;;
29184;SDS011;16233;47.964;-3.842;2022-10-31T07:40:41;36.45;;;21.48;;
29184;SDS011;16233;47.964;-3.842;2022-10-31T07:42:44;54.33;;;22.02;;
29184;SDS011;16233;47.964;-3.842;2022-10-31T07:44:46;48.25;;;25.50;;
29184;SDS011;16233;47.964;-3.842;2022-10-31T07:46:47;54.88;;;22.65;;
29184;SDS011;16233;47.964;-3.842;2022-10-31T07:48:48;47.65;;;23.50;;
29184;SDS011;16233;47.964;-3.842;2022-10-31T07:50:49;42.22;;;21.45;;
29184;SDS011;16233;47.964;-3.842;2022-10-31T07:52:57;34.33;;;20.88;;
29184;SDS011;16233;47.964;-3.842;2022-10-31T07:54:59;50.20;;;22.27;;
29184;SDS011;16233;47.964;-3.842;2022-10-31T07:57:00;33.08;;;20.50;;
29184;SDS011;16233;47.964;-3.842;2022-10-31T07:59:02;33.58;;;22.30;;
29184;SDS011;16233;47.964;-3.842;2022-10-31T08:01:03;30.65;;;23.70;;
29184;SDS011;16233;47.964;-3.842;2022-10-31T08:03:06;32.60;;;23.35;;
29184;SDS011;16233;47.964;-3.842;2022-10-31T08:05:08;27.02;;;21.73;;
29184;SDS011;16233;47.964;-3.842;2022-10-31T08:07:09;52.78;;;22.90;;
29184;SDS011;16233;47.964;-3.842;2022-10-31T08:09:10;33.97;;;22.33;;
29184;SDS011;16233;47.964;-3.842;2022-10-31T08:11:11;30.50;;;21.58;;
29184;SDS011;16233;47.964;-3.842;2022-10-31T08:13:12;34.15;;;21.58;;
29184;SDS011;16233;47.964;-3.842;2022-10-31T08:15:15;22.60;;;20.30;;
29184;SDS011;16233;47.964;-3.842;2022-10-31T08:17:16;27.02;;;22.40;;
29184;SDS011;16233;47.964;-3.842;2022-10-31T08:19:17;23.55;;;21.15;;
29184;SDS011;16233;47.964;-3.842;2022-10-31T08:21:18;27.33;;;22.17;;
29184;SDS011;16233;47.964;-3.842;2022-10-31T08:23:19;24.38;;;21.88;;
29184;SDS011;16233;47.964;-3.842;2022-10-31T08:25:20;23.30;;;20.98;;
29184;SDS011;16233;47.964;-3.842;2022-10-31T08:27:21;23.38;;;20.45;;
29184;SDS011;16233;47.964;-3.842;2022-10-31T08:29:25;23.08;;;20.92;;
29184;SDS011;16233;47.964;-3.842;2022-10-31T08:31:28;25.48;;;23.02;;
29184;SDS011;16233;47.964;-3.842;2022-10-31T08:33:29;23.45;;;21.10;;
29184;SDS011;16233;47.964;-3.842;2022-10-31T08:35:30;23.40;;;21.10;;
29184;SDS011;16233;47.964;-3.842;2022-10-31T08:37:32;23.70;;;21.48;;
29184;SDS011;16233;47.964;-3.842;2022-10-31T08:39:33;24.08;;;21.85;;
29184;SDS011;16233;47.964;-3.842;2022-10-31T08:41:34;23.70;;;21.52;;
29184;SDS011;16233;47.964;-3.842;2022-10-31T08:43:34;23.98;;;21.77;;
29184;SDS011;16233;47.964;-3.842;2022-10-31T08:45:36;23.13;;;21.20;;
29184;SDS011;16233;47.964;-3.842;2022-10-31T08:47:38;20.45;;;18.83;;
29184;SDS011;16233;47.964;-3.842;2022-10-31T08:49:39;23.17;;;20.95;;
29184;SDS011;16233;47.964;-3.842;2022-10-31T08:51:40;22.42;;;20.40;;
29184;SDS011;16233;47.964;-3.842;2022-10-31T08:53:41;22.23;;;20.33;;
29184;SDS011;16233;47.964;-3.842;2022-10-31T08:55:44;21.75;;;20.00;;
29184;SDS011;16233;47.964;-3.842;2022-10-31T08:57:45;20.88;;;19.35;;
29184;SDS011;16233;47.964;-3.842;2022-10-31T08:59:49;21.52;;;20.00;;
29184;SDS011;16233;47.964;-3.842;2022-10-31T09:01:50;21.85;;;19.90;;
29184;SDS011;16233;47.964;-3.842;2022-10-31T09:03:53;22.02;;;20.48;;
29184;SDS011;16233;47.964;-3.842;2022-10-31T09:05:55;20.73;;;19.30;;
29184;SDS011;16233;47.964;-3.842;2022-10-31T09:07:58;20.48;;;18.65;;
29184;SDS011;16233;47.964;-3.842;2022-10-31T09:10:00;21.70;;;20.05;;
29184;SDS011;16233;47.964;-3.842;2022-10-31T09:12:01;20.05;;;18.63;;
29184;SDS011;16233;47.964;-3.842;2022-10-31T09:14:02;21.05;;;19.50;;
29184;SDS011;16233;47.964;-3.842;2022-10-31T09:16:03;20.10;;;18.80;;
29184;SDS011;16233;47.964;-3.842;2022-10-31T09:18:05;22.10;;;20.42;;
29184;SDS011;16233;47.964;-3.842;2022-10-31T09:20:09;21.73;;;19.90;;
29184;SDS011;16233;47.964;-3.842;2022-10-31T09:22:10;21.40;;;19.85;;
29184;SDS011;16233;47.964;-3.842;2022-10-31T09:24:11;20.17;;;18.73;;
29184;SDS011;16233;47.964;-3.842;2022-10-31T09:26:12;19.92;;;18.52;;
29184;SDS011;16233;47.964;-3.842;2022-10-31T09:28:13;22.13;;;20.73;;
29184;SDS011;16233;47.964;-3.842;2022-10-31T09:30:16;21.10;;;19.73;;
29184;SDS011;16233;47.964;-3.842;2022-10-31T09:32:17;20.98;;;19.55;;
29184;SDS011;16233;47.964;-3.842;2022-10-31T09:34:18;20.90;;;19.50;;
29184;SDS011;16233;47.964;-3.842;2022-10-31T09:36:20;20.25;;;18.95;;
29184;SDS011;16233;47.964;-3.842;2022-10-31T09:38:21;19.13;;;17.63;;
29184;SDS011;16233;47.964;-3.842;2022-10-31T09:40:23;21.90;;;20.45;;
29184;SDS011;16233;47.964;-3.842;2022-10-31T09:42:36;22.52;;;21.00;;
29184;SDS011;16233;47.964;-3.842;2022-10-31T09:44:49;20.80;;;19.45;;
29184;SDS011;16233;47.964;-3.842;2022-10-31T09:46:58;19.55;;;18.15;;
29184;SDS011;16233;47.964;-3.842;2022-10-31T09:49:16;22.73;;;21.00;;
29184;SDS011;16233;47.964;-3.842;2022-10-31T09:51:30;21.00;;;19.70;;
29184;SDS011;16233;47.964;-3.842;2022-10-31T09:53:36;22.15;;;20.75;;
29184;SDS011;16233;47.964;-3.842;2022-10-31T09:55:41;21.83;;;20.48;;
29184;SDS011;16233;47.964;-3.842;2022-10-31T09:57:44;23.05;;;21.38;;
29184;SDS011;16233;47.964;-3.842;2022-10-31T09:59:46;23.95;;;22.55;;
29184;SDS011;16233;47.964;-3.842;2022-10-31T10:01:50;24.02;;;22.30;;
29184;SDS011;16233;47.964;-3.842;2022-10-31T10:03:55;24.52;;;22.73;;
29184;SDS011;16233;47.964;-3.842;2022-10-31T10:06:01;24.33;;;22.80;;
29184;SDS011;16233;47.964;-3.842;2022-10-31T10:08:13;25.38;;;23.92;;
29184;SDS011;16233;47.964;-3.842;2022-10-31T10:10:20;25.92;;;24.52;;
29184;SDS011;16233;47.964;-3.842;2022-10-31T10:12:33;29.48;;;27.58;;
29184;SDS011;16233;47.964;-3.842;2022-10-31T10:14:47;522.67;;;271.48;;
29184;SDS011;16233;47.964;-3.842;2022-10-31T10:17:08;522.78;;;271.45;;
29184;SDS011;16233;47.964;-3.842;2022-10-31T10:19:21;1999.90;;;999.90;;
29184;SDS011;16233;47.964;-3.842;2022-10-31T10:21:33;1999.90;;;999.90;;
29184;SDS011;16233;47.964;-3.842;2022-10-31T10:23:45;1999.90;;;999.90;;
29184;SDS011;16233;47.964;-3.842;2022-10-31T10:25:57;1999.90;;;999.90;;
29184;SDS011;16233;47.964;-3.842;2022-10-31T10:28:08;1999.90;;;999.90;;
29184;SDS011;16233;47.964;-3.842;2022-10-31T10:30:16;1999.90;;;999.90;;
29184;SDS011;16233;47.964;-3.842;2022-10-31T10:32:21;1999.90;;;999.90;;
29184;SDS011;16233;47.964;-3.842;2022-10-31T10:34:25;1999.90;;;999.90;;
29184;SDS011;16233;47.964;-3.842;2022-10-31T10:36:32;1999.90;;;999.90;;
29184;SDS011;16233;47.964;-3.842;2022-10-31T10:38:39;1999.90;;;999.90;;
29184;SDS011;16233;47.964;-3.842;2022-10-31T10:40:52;1999.90;;;999.90;;
29184;SDS011;16233;47.964;-3.842;2022-10-31T10:42:56;1999.90;;;999.90;;
29184;SDS011;16233;47.964;-3.842;2022-10-31T10:45:13;1999.90;;;999.90;;
29184;SDS011;16233;47.964;-3.842;2022-10-31T10:47:15;1999.90;;;999.90;;
29184;SDS011;16233;47.964;-3.842;2022-10-31T10:49:17;1999.90;;;999.90;;
29184;SDS011;16233;47.964;-3.842;2022-10-31T10:51:23;1999.90;;;999.90;;
29184;SDS011;16233;47.964;-3.842;2022-10-31T10:53:34;1508.05;;;757.60;;
29184;SDS011;16233;47.964;-3.842;2022-10-31T10:55:51;522.92;;;271.30;;
29184;SDS011;16233;47.964;-3.842;2022-10-31T10:57:58;29.92;;;28.13;;
29184;SDS011;16233;47.964;-3.842;2022-10-31T11:00:17;31.73;;;29.83;;
29184;SDS011;16233;47.964;-3.842;2022-10-31T11:02:20;522.15;;;270.63;;
29184;SDS011;16233;47.964;-3.842;2022-10-31T11:04:25;1999.90;;;999.90;;
29184;SDS011;16233;47.964;-3.842;2022-10-31T11:06:29;525.03;;;273.13;;
29184;SDS011;16233;47.964;-3.842;2022-10-31T11:08:31;32.53;;;30.50;;
29184;SDS011;16233;47.964;-3.842;2022-10-31T11:10:40;33.10;;;31.20;;
29184;SDS011;16233;47.964;-3.842;2022-10-31T11:12:43;1999.90;;;999.90;;
29184;SDS011;16233;47.964;-3.842;2022-10-31T11:14:58;524.67;;;273.02;;
29184;SDS011;16233;47.964;-3.842;2022-10-31T11:17:09;32.25;;;30.15;;
29184;SDS011;16233;47.964;-3.842;2022-10-31T11:19:18;31.42;;;29.55;;
29184;SDS011;16233;47.964;-3.842;2022-10-31T11:21:21;30.70;;;28.50;;
29184;SDS011;16233;47.964;-3.842;2022-10-31T11:23:26;30.75;;;28.23;;
29184;SDS011;16233;47.964;-3.842;2022-10-31T11:25:28;30.77;;;28.83;;
29184;SDS011;16233;47.964;-3.842;2022-10-31T11:27:29;31.58;;;28.95;;
29184;SDS011;16233;47.964;-3.842;2022-10-31T11:29:32;31.55;;;29.45;;
29184;SDS011;16233;47.964;-3.842;2022-10-31T11:31:34;27.85;;;25.95;;
29184;SDS011;16233;47.964;-3.842;2022-10-31T11:33:36;29.83;;;27.50;;
29184;SDS011;16233;47.964;-3.842;2022-10-31T11:35:39;30.55;;;28.55;;
29184;SDS011;16233;47.964;-3.842;2022-10-31T11:37:41;30.13;;;28.08;;
29184;SDS011;16233;47.964;-3.842;2022-10-31T11:39:44;27.60;;;25.90;;
29184;SDS011;16233;47.964;-3.842;2022-10-31T11:41:50;28.42;;;26.45;;
29184;SDS011;16233;47.964;-3.842;2022-10-31T11:43:53;29.65;;;27.45;;
29184;SDS011;16233;47.964;-3.842;2022-10-31T11:45:58;31.40;;;29.30;;
29184;SDS011;16233;47.964;-3.842;2022-10-31T11:48:00;31.08;;;28.85;;
29184;SDS011;16233;47.964;-3.842;2022-10-31T11:50:02;30.65;;;28.70;;
29184;SDS011;16233;47.964;-3.842;2022-10-31T11:52:14;30.10;;;28.13;;
29184;SDS011;16233;47.964;-3.842;2022-10-31T11:54:21;30.05;;;27.73;;
29184;SDS011;16233;47.964;-3.842;2022-10-31T11:56:25;28.77;;;26.85;;
29184;SDS011;16233;47.964;-3.842;2022-10-31T11:58:26;29.42;;;27.10;;